sensor_id;sensor_type;location;lat;lon;timestamp;pressure;altitude;pressure_sealevel;temperature;humidity
29121;BME280;16191;49.548;8.658;2023-03-15T00:00:18;100104.09;;;3.16;100.00
29121;BME280;16191;49.548;8.658;2023-03-15T00:02:44;100111.78;;;3.17;100.00
29121;BME280;16191;49.548;8.658;2023-03-15T00:05:11;100112.72;;;3.12;100.00
29121;BME280;16191;49.548;8.658;2023-03-15T00:07:38;100113.56;;;3.14;100.00
29121;BME280;16191;49.548;8.658;2023-03-15T00:10:05;100123.91;;;3.09;100.00
29121;BME280;16191;49.548;8.658;2023-03-15T00:12:31;100127.38;;;3.06;100.00
29121;BME280;16191;49.548;8.658;2023-03-15T00:14:59;100130.03;;;3.02;100.00
29121;BME280;16191;49.548;8.658;2023-03-15T00:17:26;100128.25;;;3.05;100.00
29121;BME280;16191;49.548;8.658;2023-03-15T00:19:52;100130.06;;;3.00;100.00
29121;BME280;16191;49.548;8.658;2023-03-15T00:22:19;100129.31;;;2.91;100.00
29121;BME280;16191;49.548;8.658;2023-03-15T00:24:48;100134.47;;;2.91;100.00
29121;BME280;16191;49.548;8.658;2023-03-15T00:27:15;100135.28;;;2.94;100.00
29121;BME280;16191;49.548;8.658;2023-03-15T00:29:41;100144.66;;;3.00;100.00
29121;BME280;16191;49.548;8.658;2023-03-15T00:32:08;100151.59;;;2.96;100.00
29121;BME280;16191;49.548;8.658;2023-03-15T00:34:34;100162.88;;;2.85;100.00
29121;BME280;16191;49.548;8.658;2023-03-15T00:37:01;100159.66;;;2.61;100.00
29121;BME280;16191;49.548;8.658;2023-03-15T00:39:28;100168.16;;;2.72;100.00
29121;BME280;16191;49.548;8.658;2023-03-15T00:41:55;100164.69;;;2.75;100.00
29121;BME280;16191;49.548;8.658;2023-03-15T00:44:23;100173.31;;;2.74;100.00
29121;BME280;16191;49.548;8.658;2023-03-15T00:46:50;100172.56;;;2.61;100.00
29121;BME280;16191;49.548;8.658;2023-03-15T00:49:16;100176.94;;;2.55;100.00
29121;BME280;16191;49.548;8.658;2023-03-15T00:51:43;100176.06;;;2.57;100.00
29121;BME280;16191;49.548;8.658;2023-03-15T00:54:10;100183.72;;;2.60;100.00
29121;BME280;16191;49.548;8.658;2023-03-15T00:56:39;100189.72;;;2.62;100.00
29121;BME280;16191;49.548;8.658;2023-03-15T00:59:07;100191.56;;;2.50;100.00
29121;BME280;16191;49.548;8.658;2023-03-15T01:01:34;100193.28;;;2.51;100.00
29121;BME280;16191;49.548;8.658;2023-03-15T01:04:02;100192.34;;;2.59;100.00
29121;BME280;16191;49.548;8.658;2023-03-15T01:06:30;100206.09;;;2.58;100.00
29121;BME280;16191;49.548;8.658;2023-03-15T01:08:58;100201.00;;;2.51;100.00
29121;BME280;16191;49.548;8.658;2023-03-15T01:11:26;100205.31;;;2.49;100.00
29121;BME280;16191;49.548;8.658;2023-03-15T01:13:55;100211.31;;;2.48;100.00
29121;BME280;16191;49.548;8.658;2023-03-15T01:16:23;100207.03;;;2.48;100.00
29121;BME280;16191;49.548;8.658;2023-03-15T01:18:50;100213.94;;;2.41;100.00
29121;BME280;16191;49.548;8.658;2023-03-15T01:21:19;100207.94;;;2.41;100.00
29121;BME280;16191;49.548;8.658;2023-03-15T01:23:46;100214.78;;;2.42;100.00
29121;BME280;16191;49.548;8.658;2023-03-15T01:26:14;100217.38;;;2.40;100.00
29121;BME280;16191;49.548;8.658;2023-03-15T01:28:42;100210.66;;;2.23;100.00
29121;BME280;16191;49.548;8.658;2023-03-15T01:31:17;100220.03;;;2.36;100.00
29121;BME280;16191;49.548;8.658;2023-03-15T01:33:44;100212.34;;;2.27;100.00
29121;BME280;16191;49.548;8.658;2023-03-15T01:36:11;100206.31;;;2.31;100.00
29121;BME280;16191;49.548;8.658;2023-03-15T01:38:39;100212.38;;;2.21;100.00
29121;BME280;16191;49.548;8.658;2023-03-15T01:41:07;100213.25;;;2.20;100.00
29121;BME280;16191;49.548;8.658;2023-03-15T01:43:35;100215.06;;;2.12;100.00
29121;BME280;16191;49.548;8.658;2023-03-15T01:46:31;100231.38;;;2.09;100.00
29121;BME280;16191;49.548;8.658;2023-03-15T01:49:19;100233.94;;;2.11;100.00
29121;BME280;16191;49.548;8.658;2023-03-15T01:52:02;100244.25;;;2.08;100.00
29121;BME280;16191;49.548;8.658;2023-03-15T01:54:45;100240.97;;;1.83;100.00
29121;BME280;16191;49.548;8.658;2023-03-15T01:57:20;100243.50;;;1.89;100.00
29121;BME280;16191;49.548;8.658;2023-03-15T02:00:03;100236.56;;;1.97;100.00
29121;BME280;16191;49.548;8.658;2023-03-15T02:02:46;100246.94;;;1.88;100.00
29121;BME280;16191;49.548;8.658;2023-03-15T02:05:23;100234.06;;;1.92;100.00
29121;BME280;16191;49.548;8.658;2023-03-15T02:07:52;100244.38;;;1.88;100.00
29121;BME280;16191;49.548;8.658;2023-03-15T02:10:43;100245.13;;;1.99;100.00
29121;BME280;16191;49.548;8.658;2023-03-15T02:13:13;100247.78;;;1.94;100.00
29121;BME280;16191;49.548;8.658;2023-03-15T02:15:41;100245.22;;;1.87;100.00
29121;BME280;16191;49.548;8.658;2023-03-15T02:18:16;100244.47;;;1.66;100.00
29121;BME280;16191;49.548;8.658;2023-03-15T02:23:36;100244.56;;;1.47;100.00
29121;BME280;16191;49.548;8.658;2023-03-15T02:28:40;100247.09;;;1.56;100.00
29121;BME280;16191;49.548;8.658;2023-03-15T02:31:07;100247.09;;;1.53;100.00
29121;BME280;16191;49.548;8.658;2023-03-15T02:33:53;100257.41;;;1.51;100.00
29121;BME280;16191;49.548;8.658;2023-03-15T02:36:43;100254.81;;;1.54;100.00
29121;BME280;16191;49.548;8.658;2023-03-15T02:39:29;100258.28;;;1.41;100.00
29121;BME280;16191;49.548;8.658;2023-03-15T02:42:17;100259.16;;;1.43;100.00
29121;BME280;16191;49.548;8.658;2023-03-15T02:45:05;100266.88;;;1.37;100.00
29121;BME280;16191;49.548;8.658;2023-03-15T02:47:52;100272.91;;;1.28;100.00
29121;BME280;16191;49.548;8.658;2023-03-15T02:50:19;100283.19;;;1.22;100.00
29121;BME280;16191;49.548;8.658;2023-03-15T02:52:45;100279.78;;;1.26;100.00
29121;BME280;16191;49.548;8.658;2023-03-15T02:55:12;100285.78;;;1.25;100.00
29121;BME280;16191;49.548;8.658;2023-03-15T02:57:39;100286.63;;;1.20;100.00
29121;BME280;16191;49.548;8.658;2023-03-15T03:00:06;100285.78;;;1.24;100.00
29121;BME280;16191;49.548;8.658;2023-03-15T03:02:41;100292.63;;;1.16;100.00
29121;BME280;16191;49.548;8.658;2023-03-15T03:05:10;100295.25;;;1.08;100.00
29121;BME280;16191;49.548;8.658;2023-03-15T03:07:38;100301.25;;;1.07;100.00
29121;BME280;16191;49.548;8.658;2023-03-15T03:10:06;100301.19;;;1.15;100.00
29121;BME280;16191;49.548;8.658;2023-03-15T03:12:42;100312.34;;;1.17;100.00
29121;BME280;16191;49.548;8.658;2023-03-15T03:15:10;100318.34;;;1.17;100.00
29121;BME280;16191;49.548;8.658;2023-03-15T03:17:37;100318.38;;;1.05;100.00
29121;BME280;16191;49.548;8.658;2023-03-15T03:20:09;100326.91;;;1.15;100.00
29121;BME280;16191;49.548;8.658;2023-03-15T03:22:41;100329.50;;;1.07;100.00
29121;BME280;16191;49.548;8.658;2023-03-15T03:25:11;100329.50;;;1.02;100.00
29121;BME280;16191;49.548;8.658;2023-03-15T03:27:39;100330.34;;;0.98;100.00
29121;BME280;16191;49.548;8.658;2023-03-15T03:30:10;100332.91;;;0.94;100.00
29121;BME280;16191;49.548;8.658;2023-03-15T03:32:40;100336.34;;;1.05;100.00
29121;BME280;16191;49.548;8.658;2023-03-15T03:35:07;100342.34;;;1.06;100.00
29121;BME280;16191;49.548;8.658;2023-03-15T03:37:34;100342.34;;;1.02;100.00
29121;BME280;16191;49.548;8.658;2023-03-15T03:40:06;100342.34;;;1.07;100.00
29121;BME280;16191;49.548;8.658;2023-03-15T03:42:34;100346.63;;;1.08;100.00
29121;BME280;16191;49.548;8.658;2023-03-15T03:45:02;100344.91;;;0.96;100.00
29121;BME280;16191;49.548;8.658;2023-03-15T03:47:34;100344.91;;;0.99;100.00
29121;BME280;16191;49.548;8.658;2023-03-15T03:50:00;100351.78;;;1.02;100.00
29121;BME280;16191;49.548;8.658;2023-03-15T03:52:27;100362.91;;;1.02;100.00
29121;BME280;16191;49.548;8.658;2023-03-15T03:55:01;100358.63;;;0.98;100.00
29121;BME280;16191;49.548;8.658;2023-03-15T03:57:29;100361.19;;;1.01;100.00
29121;BME280;16191;49.548;8.658;2023-03-15T03:59:55;100362.03;;;0.96;100.00
29121;BME280;16191;49.548;8.658;2023-03-15T04:02:24;100367.16;;;0.91;100.00
29121;BME280;16191;49.548;8.658;2023-03-15T04:05:01;100366.31;;;0.98;100.00
29121;BME280;16191;49.548;8.658;2023-03-15T04:07:27;100364.59;;;0.96;100.00
29121;BME280;16191;49.548;8.658;2023-03-15T04:09:55;100368.03;;;0.96;100.00
29121;BME280;16191;49.548;8.658;2023-03-15T04:12:21;100368.03;;;0.95;100.00
29121;BME280;16191;49.548;8.658;2023-03-15T04:14:51;100373.19;;;0.98;100.00
29121;BME280;16191;49.548;8.658;2023-03-15T04:17:20;100374.03;;;1.01;100.00
29121;BME280;16191;49.548;8.658;2023-03-15T04:19:47;100376.59;;;0.95;100.00
29121;BME280;16191;49.548;8.658;2023-03-15T04:22:18;100375.75;;;0.95;100.00
29121;BME280;16191;49.548;8.658;2023-03-15T04:25:00;100368.03;;;1.01;100.00
29121;BME280;16191;49.548;8.658;2023-03-15T04:27:38;100374.88;;;0.94;100.00
29121;BME280;16191;49.548;8.658;2023-03-15T04:30:08;100368.03;;;0.92;100.00
29121;BME280;16191;49.548;8.658;2023-03-15T04:33:04;100374.88;;;0.93;100.00
29121;BME280;16191;49.548;8.658;2023-03-15T04:35:45;100374.88;;;0.87;100.00
29121;BME280;16191;49.548;8.658;2023-03-15T04:38:24;100382.59;;;0.90;100.00
29121;BME280;16191;49.548;8.658;2023-03-15T04:41:19;100374.91;;;0.84;100.00
29121;BME280;16191;49.548;8.658;2023-03-15T04:44:04;100378.31;;;0.84;100.00
29121;BME280;16191;49.548;8.658;2023-03-15T04:46:49;100385.16;;;0.84;100.00
29121;BME280;16191;49.548;8.658;2023-03-15T04:49:39;100392.00;;;0.80;100.00
29121;BME280;16191;49.548;8.658;2023-03-15T04:52:24;100390.28;;;0.88;100.00
29121;BME280;16191;49.548;8.658;2023-03-15T04:55:05;100401.44;;;0.81;100.00
29121;BME280;16191;49.548;8.658;2023-03-15T04:57:44;100398.88;;;0.84;100.00
29121;BME280;16191;49.548;8.658;2023-03-15T05:00:22;100389.44;;;0.74;100.00
29121;BME280;16191;49.548;8.658;2023-03-15T05:03:04;100385.16;;;0.82;100.00
29121;BME280;16191;49.548;8.658;2023-03-15T05:05:50;100389.44;;;0.82;100.00
29121;BME280;16191;49.548;8.658;2023-03-15T05:08:39;100394.59;;;0.85;100.00
29121;BME280;16191;49.548;8.658;2023-03-15T05:11:29;100393.72;;;0.92;100.00
29121;BME280;16191;49.548;8.658;2023-03-15T05:14:34;100398.84;;;0.90;100.00
29121;BME280;16191;49.548;8.658;2023-03-15T05:17:19;100392.03;;;0.98;100.00
29121;BME280;16191;49.548;8.658;2023-03-15T05:20:12;100399.72;;;1.03;100.00
29121;BME280;16191;49.548;8.658;2023-03-15T05:22:50;100399.72;;;1.00;100.00
29121;BME280;16191;49.548;8.658;2023-03-15T05:25:41;100398.88;;;1.02;100.00
29121;BME280;16191;49.548;8.658;2023-03-15T05:28:37;100391.16;;;1.10;100.00
29121;BME280;16191;49.548;8.658;2023-03-15T05:31:22;100392.00;;;1.11;100.00
29121;BME280;16191;49.548;8.658;2023-03-15T05:34:09;100394.56;;;1.11;100.00
29121;BME280;16191;49.548;8.658;2023-03-15T05:36:40;100400.56;;;1.11;100.00
29121;BME280;16191;49.548;8.658;2023-03-15T05:39:27;100410.84;;;1.16;100.00
29121;BME280;16191;49.548;8.658;2023-03-15T05:42:07;100414.28;;;1.15;100.00
29121;BME280;16191;49.548;8.658;2023-03-15T05:44:52;100422.84;;;1.14;100.00
29121;BME280;16191;49.548;8.658;2023-03-15T05:47:37;100421.13;;;1.17;100.00
29121;BME280;16191;49.548;8.658;2023-03-15T05:50:09;100431.41;;;1.17;100.00
29121;BME280;16191;49.548;8.658;2023-03-15T05:52:54;100426.28;;;1.19;100.00
29121;BME280;16191;49.548;8.658;2023-03-15T05:55:29;100424.56;;;1.19;100.00
29121;BME280;16191;49.548;8.658;2023-03-15T05:58:06;100416.84;;;1.18;100.00
29121;BME280;16191;49.548;8.658;2023-03-15T06:00:42;100427.16;;;1.22;100.00
29121;BME280;16191;49.548;8.658;2023-03-15T06:03:21;100435.72;;;1.21;100.00
29121;BME280;16191;49.548;8.658;2023-03-15T06:05:58;100423.72;;;1.20;100.00
29121;BME280;16191;49.548;8.658;2023-03-15T06:08:33;100422.84;;;1.21;100.00
29121;BME280;16191;49.548;8.658;2023-03-15T06:10:59;100420.28;;;1.21;100.00
29121;BME280;16191;49.548;8.658;2023-03-15T06:13:26;100431.44;;;1.23;100.00
29121;BME280;16191;49.548;8.658;2023-03-15T06:15:53;100439.16;;;1.28;100.00
29121;BME280;16191;49.548;8.658;2023-03-15T06:18:20;100445.16;;;1.25;100.00
29121;BME280;16191;49.548;8.658;2023-03-15T06:20:48;100442.56;;;1.25;100.00
29121;BME280;16191;49.548;8.658;2023-03-15T06:23:16;100448.56;;;1.26;100.00
29121;BME280;16191;49.548;8.658;2023-03-15T06:25:45;100449.44;;;1.23;100.00
29121;BME280;16191;49.548;8.658;2023-03-15T06:28:13;100451.13;;;1.26;100.00
29121;BME280;16191;49.548;8.658;2023-03-15T06:30:44;100455.44;;;1.25;100.00
29121;BME280;16191;49.548;8.658;2023-03-15T06:33:12;100455.44;;;1.30;100.00
29121;BME280;16191;49.548;8.658;2023-03-15T06:35:38;100466.56;;;1.24;100.00
29121;BME280;16191;49.548;8.658;2023-03-15T06:38:05;100454.56;;;1.26;100.00
29121;BME280;16191;49.548;8.658;2023-03-15T06:40:31;100458.84;;;1.35;100.00
29121;BME280;16191;49.548;8.658;2023-03-15T06:42:58;100462.25;;;1.34;100.00
29121;BME280;16191;49.548;8.658;2023-03-15T06:45:29;100464.00;;;1.27;100.00
29121;BME280;16191;49.548;8.658;2023-03-15T06:47:57;100472.56;;;1.29;100.00
29121;BME280;16191;49.548;8.658;2023-03-15T06:50:24;100476.84;;;1.36;100.00
29121;BME280;16191;49.548;8.658;2023-03-15T06:52:53;100485.41;;;1.32;100.00
29121;BME280;16191;49.548;8.658;2023-03-15T06:55:19;100481.13;;;1.28;100.00
29121;BME280;16191;49.548;8.658;2023-03-15T06:57:46;100487.13;;;1.24;100.00
29121;BME280;16191;49.548;8.658;2023-03-15T07:00:13;100488.00;;;1.26;100.00
29121;BME280;16191;49.548;8.658;2023-03-15T07:02:40;100485.44;;;1.29;100.00
29121;BME280;16191;49.548;8.658;2023-03-15T07:05:06;100485.41;;;1.32;100.00
29121;BME280;16191;49.548;8.658;2023-03-15T07:07:33;100492.25;;;1.32;100.00
29121;BME280;16191;49.548;8.658;2023-03-15T07:10:00;100486.28;;;1.45;100.00
29121;BME280;16191;49.548;8.658;2023-03-15T07:12:26;100475.13;;;1.35;100.00
29121;BME280;16191;49.548;8.658;2023-03-15T07:14:53;100494.84;;;1.40;100.00
29121;BME280;16191;49.548;8.658;2023-03-15T07:17:19;100496.56;;;1.41;100.00
29121;BME280;16191;49.548;8.658;2023-03-15T07:19:46;100519.69;;;1.41;100.00
29121;BME280;16191;49.548;8.658;2023-03-15T07:22:22;100532.56;;;1.41;100.00
29121;BME280;16191;49.548;8.658;2023-03-15T07:24:48;100532.56;;;1.44;100.00
29121;BME280;16191;49.548;8.658;2023-03-15T07:27:15;100536.84;;;1.48;100.00
29121;BME280;16191;49.548;8.658;2023-03-15T07:29:44;100533.41;;;1.47;100.00
29121;BME280;16191;49.548;8.658;2023-03-15T07:32:11;100540.28;;;1.50;100.00
29121;BME280;16191;49.548;8.658;2023-03-15T07:34:37;100543.69;;;1.53;100.00
29121;BME280;16191;49.548;8.658;2023-03-15T07:37:04;100553.97;;;1.53;100.00
29121;BME280;16191;49.548;8.658;2023-03-15T07:39:31;100540.25;;;1.54;100.00
29121;BME280;16191;49.548;8.658;2023-03-15T07:41:58;100549.72;;;1.51;100.00
29121;BME280;16191;49.548;8.658;2023-03-15T07:44:36;100559.97;;;1.57;100.00
29121;BME280;16191;49.548;8.658;2023-03-15T07:47:03;100555.69;;;1.53;100.00
29121;BME280;16191;49.548;8.658;2023-03-15T07:49:30;100549.69;;;1.60;100.00
29121;BME280;16191;49.548;8.658;2023-03-15T07:51:57;100538.56;;;1.64;100.00
29121;BME280;16191;49.548;8.658;2023-03-15T07:54:23;100540.28;;;1.66;100.00
29121;BME280;16191;49.548;8.658;2023-03-15T07:56:51;100537.72;;;1.69;100.00
29121;BME280;16191;49.548;8.658;2023-03-15T07:59:18;100544.56;;;1.69;100.00
29121;BME280;16191;49.548;8.658;2023-03-15T08:01:44;100540.28;;;1.62;100.00
29121;BME280;16191;49.548;8.658;2023-03-15T08:04:11;100548.00;;;1.65;100.00
29121;BME280;16191;49.548;8.658;2023-03-15T08:06:38;100550.56;;;1.71;100.00
29121;BME280;16191;49.548;8.658;2023-03-15T08:09:04;100552.28;;;1.72;100.00
29121;BME280;16191;49.548;8.658;2023-03-15T08:11:32;100548.00;;;1.68;100.00
29121;BME280;16191;49.548;8.658;2023-03-15T08:14:04;100544.56;;;1.81;100.00
29121;BME280;16191;49.548;8.658;2023-03-15T08:16:31;100541.13;;;1.91;100.00
29121;BME280;16191;49.548;8.658;2023-03-15T08:18:57;100543.72;;;1.94;100.00
29121;BME280;16191;49.548;8.658;2023-03-15T08:21:24;100554.00;;;1.90;100.00
29121;BME280;16191;49.548;8.658;2023-03-15T08:23:50;100551.44;;;1.91;100.00
29121;BME280;16191;49.548;8.658;2023-03-15T08:26:17;100562.56;;;1.92;100.00
29121;BME280;16191;49.548;8.658;2023-03-15T08:28:44;100574.59;;;1.90;100.00
29121;BME280;16191;49.548;8.658;2023-03-15T08:31:10;100578.88;;;1.91;100.00
29121;BME280;16191;49.548;8.658;2023-03-15T08:33:39;100569.44;;;1.94;100.00
29121;BME280;16191;49.548;8.658;2023-03-15T08:36:06;100568.59;;;1.91;100.00
29121;BME280;16191;49.548;8.658;2023-03-15T08:38:33;100564.28;;;1.91;100.00
29121;BME280;16191;49.548;8.658;2023-03-15T08:40:59;100567.72;;;1.89;100.00
29121;BME280;16191;49.548;8.658;2023-03-15T08:43:26;100572.00;;;1.88;100.00
29121;BME280;16191;49.548;8.658;2023-03-15T08:45:53;100565.13;;;1.98;100.00
29121;BME280;16191;49.548;8.658;2023-03-15T08:48:27;100572.00;;;1.99;100.00
29121;BME280;16191;49.548;8.658;2023-03-15T08:50:53;100570.28;;;2.05;100.00
29121;BME280;16191;49.548;8.658;2023-03-15T08:53:20;100578.00;;;2.09;100.00
29121;BME280;16191;49.548;8.658;2023-03-15T08:55:47;100580.56;;;1.99;100.00
29121;BME280;16191;49.548;8.658;2023-03-15T08:58:15;100578.84;;;2.06;100.00
29121;BME280;16191;49.548;8.658;2023-03-15T09:00:41;100586.56;;;2.04;100.00
29121;BME280;16191;49.548;8.658;2023-03-15T09:03:08;100590.00;;;2.08;100.00
29121;BME280;16191;49.548;8.658;2023-03-15T09:05:35;100602.84;;;2.29;100.00
29121;BME280;16191;49.548;8.658;2023-03-15T09:08:02;100606.28;;;2.24;100.00
29121;BME280;16191;49.548;8.658;2023-03-15T09:10:29;100596.84;;;2.20;100.00
29121;BME280;16191;49.548;8.658;2023-03-15T09:12:56;100594.28;;;2.23;100.00
29121;BME280;16191;49.548;8.658;2023-03-15T09:15:22;100601.16;;;2.04;100.00
29121;BME280;16191;49.548;8.658;2023-03-15T09:17:49;100601.16;;;2.04;100.00
29121;BME280;16191;49.548;8.658;2023-03-15T09:20:17;100611.47;;;2.09;100.00
29121;BME280;16191;49.548;8.658;2023-03-15T09:22:52;100621.75;;;2.12;100.00
29121;BME280;16191;49.548;8.658;2023-03-15T09:25:19;100627.75;;;1.97;100.00
29121;BME280;16191;49.548;8.658;2023-03-15T09:27:46;100628.59;;;2.00;100.00
29121;BME280;16191;49.548;8.658;2023-03-15T09:30:13;100625.19;;;1.98;100.00
29121;BME280;16191;49.548;8.658;2023-03-15T09:32:40;100633.75;;;2.00;100.00
29121;BME280;16191;49.548;8.658;2023-03-15T09:35:09;100632.91;;;2.08;100.00
29121;BME280;16191;49.548;8.658;2023-03-15T09:37:37;100637.19;;;1.67;100.00
29121;BME280;16191;49.548;8.658;2023-03-15T09:40:04;100642.28;;;1.55;100.00
29121;BME280;16191;49.548;8.658;2023-03-15T09:42:43;100643.97;;;1.44;100.00
29121;BME280;16191;49.548;8.658;2023-03-15T09:45:25;100651.72;;;1.47;100.00
29121;BME280;16191;49.548;8.658;2023-03-15T09:48:15;100664.53;;;1.36;100.00
29121;BME280;16191;49.548;8.658;2023-03-15T09:50:47;100661.09;;;1.30;100.00
29121;BME280;16191;49.548;8.658;2023-03-15T09:53:54;100661.09;;;1.27;100.00
29121;BME280;16191;49.548;8.658;2023-03-15T09:58:58;100667.09;;;1.33;100.00
29121;BME280;16191;49.548;8.658;2023-03-15T10:01:30;100673.84;;;1.07;100.00
29121;BME280;16191;49.548;8.658;2023-03-15T10:04:03;100673.00;;;1.05;100.00
29121;BME280;16191;49.548;8.658;2023-03-15T10:06:32;100674.78;;;1.27;100.00
29121;BME280;16191;49.548;8.658;2023-03-15T10:09:10;100671.34;;;1.25;100.00
29121;BME280;16191;49.548;8.658;2023-03-15T10:11:46;100674.78;;;1.32;100.00
29121;BME280;16191;49.548;8.658;2023-03-15T10:14:53;100667.91;;;1.23;100.00
29121;BME280;16191;49.548;8.658;2023-03-15T10:20:06;100666.19;;;1.22;100.00
29121;BME280;16191;49.548;8.658;2023-03-15T10:22:55;100671.38;;;1.27;100.00
29121;BME280;16191;49.548;8.658;2023-03-15T10:25:27;100670.53;;;1.38;100.00
29121;BME280;16191;49.548;8.658;2023-03-15T10:30:35;100675.72;;;1.51;100.00
29121;BME280;16191;49.548;8.658;2023-03-15T10:33:21;100684.28;;;1.56;100.00
29121;BME280;16191;49.548;8.658;2023-03-15T10:35:50;100680.00;;;1.50;100.00
29121;BME280;16191;49.548;8.658;2023-03-15T10:38:24;100676.59;;;1.60;100.00
29121;BME280;16191;49.548;8.658;2023-03-15T10:40:57;100673.19;;;1.73;100.00
29121;BME280;16191;49.548;8.658;2023-03-15T10:43:29;100667.19;;;1.76;100.00
29121;BME280;16191;49.548;8.658;2023-03-15T10:46:06;100674.91;;;1.68;100.00
29121;BME280;16191;49.548;8.658;2023-03-15T10:51:32;100672.31;;;1.75;100.00
29121;BME280;16191;49.548;8.658;2023-03-15T10:54:04;100668.03;;;1.77;100.00
29121;BME280;16191;49.548;8.658;2023-03-15T10:56:58;100666.34;;;1.88;100.00
29121;BME280;16191;49.548;8.658;2023-03-15T10:59:27;100668.06;;;1.89;100.00
29121;BME280;16191;49.548;8.658;2023-03-15T11:04:48;100660.38;;;2.13;100.00
29121;BME280;16191;49.548;8.658;2023-03-15T11:07:15;100656.91;;;2.19;100.00
29121;BME280;16191;49.548;8.658;2023-03-15T11:09:43;100659.47;;;2.38;100.00
29121;BME280;16191;49.548;8.658;2023-03-15T11:12:22;100664.63;;;2.41;100.00
29121;BME280;16191;49.548;8.658;2023-03-15T11:14:56;100662.06;;;2.43;100.00
29121;BME280;16191;49.548;8.658;2023-03-15T11:17:26;100656.03;;;2.46;100.00
29121;BME280;16191;49.548;8.658;2023-03-15T11:19:56;100660.31;;;2.60;100.00
29121;BME280;16191;49.548;8.658;2023-03-15T11:22:23;100668.88;;;2.67;100.00
29121;BME280;16191;49.548;8.658;2023-03-15T11:24:51;100657.72;;;2.69;100.00
29121;BME280;16191;49.548;8.658;2023-03-15T11:27:21;100656.84;;;2.78;100.00
29121;BME280;16191;49.548;8.658;2023-03-15T11:29:55;100659.38;;;2.89;100.00
29121;BME280;16191;49.548;8.658;2023-03-15T11:32:25;100647.34;;;2.98;100.00
29121;BME280;16191;49.548;8.658;2023-03-15T11:34:57;100649.91;;;2.97;100.00
29121;BME280;16191;49.548;8.658;2023-03-15T11:40:00;100661.00;;;3.17;100.00
29121;BME280;16191;49.548;8.658;2023-03-15T11:42:55;100655.78;;;3.28;100.00
29121;BME280;16191;49.548;8.658;2023-03-15T11:45:30;100654.78;;;3.55;100.00
29121;BME280;16191;49.548;8.658;2023-03-15T11:48:33;100652.19;;;3.62;100.00
29121;BME280;16191;49.548;8.658;2023-03-15T11:51:07;100646.88;;;3.82;100.00
29121;BME280;16191;49.548;8.658;2023-03-15T11:53:47;100644.22;;;3.93;100.00
29121;BME280;16191;49.548;8.658;2023-03-15T11:56:24;100639.88;;;3.96;100.00
29121;BME280;16191;49.548;8.658;2023-03-15T12:06:52;100648.25;;;4.26;100.00
29121;BME280;16191;49.548;8.658;2023-03-15T12:12:03;100649.97;;;4.27;100.00
29121;BME280;16191;49.548;8.658;2023-03-15T12:14:32;100651.69;;;4.29;100.00
29121;BME280;16191;49.548;8.658;2023-03-15T12:22:41;100653.50;;;4.18;100.00
29121;BME280;16191;49.548;8.658;2023-03-15T12:25:14;100650.03;;;4.19;100.00
29121;BME280;16191;49.548;8.658;2023-03-15T12:27:49;100647.56;;;4.10;100.00
29121;BME280;16191;49.548;8.658;2023-03-15T12:30:21;100641.47;;;4.14;100.00
29121;BME280;16191;49.548;8.658;2023-03-15T12:32:52;100650.91;;;4.17;100.00
29121;BME280;16191;49.548;8.658;2023-03-15T12:35:22;100655.03;;;4.36;100.00
29121;BME280;16191;49.548;8.658;2023-03-15T12:37:51;100653.22;;;4.48;100.00
29121;BME280;16191;49.548;8.658;2023-03-15T12:50:50;100649.94;;;5.14;100.00
29121;BME280;16191;49.548;8.658;2023-03-15T12:53:22;100641.06;;;5.33;100.00
29121;BME280;16191;49.548;8.658;2023-03-15T12:55:53;100631.34;;;5.49;100.00
29121;BME280;16191;49.548;8.658;2023-03-15T12:58:37;100631.94;;;5.68;100.00
29121;BME280;16191;49.548;8.658;2023-03-15T13:01:06;100628.94;;;5.37;100.00
29121;BME280;16191;49.548;8.658;2023-03-15T13:03:34;100632.34;;;5.40;100.00
29121;BME280;16191;49.548;8.658;2023-03-15T13:06:12;100626.66;;;5.74;100.00
29121;BME280;16191;49.548;8.658;2023-03-15T13:11:40;100612.50;;;6.48;100.00
29121;BME280;16191;49.548;8.658;2023-03-15T13:16:59;100596.84;;;6.96;100.00
29121;BME280;16191;49.548;8.658;2023-03-15T13:19:40;100602.19;;;6.90;100.00
29121;BME280;16191;49.548;8.658;2023-03-15T13:22:20;100599.09;;;6.71;100.00
29121;BME280;16191;49.548;8.658;2023-03-15T13:25:12;100590.38;;;6.75;100.00
29121;BME280;16191;49.548;8.658;2023-03-15T13:28:13;100603.03;;;6.47;100.00
29121;BME280;16191;49.548;8.658;2023-03-15T13:30:52;100604.16;;;6.77;100.00
29121;BME280;16191;49.548;8.658;2023-03-15T13:33:25;100607.88;;;6.64;100.00
29121;BME280;16191;49.548;8.658;2023-03-15T13:36:00;100606.13;;;6.18;100.00
29121;BME280;16191;49.548;8.658;2023-03-15T13:38:47;100613.81;;;6.23;100.00
29121;BME280;16191;49.548;8.658;2023-03-15T13:41:20;100617.25;;;6.25;100.00
29121;BME280;16191;49.548;8.658;2023-03-15T13:43:48;100613.81;;;6.71;100.00
29121;BME280;16191;49.548;8.658;2023-03-15T13:46:18;100618.28;;;6.63;100.00
29121;BME280;16191;49.548;8.658;2023-03-15T13:48:48;100613.69;;;6.77;100.00
29121;BME280;16191;49.548;8.658;2023-03-15T13:51:34;100611.34;;;7.08;100.00
29121;BME280;16191;49.548;8.658;2023-03-15T13:54:06;100604.34;;;7.11;100.00
29121;BME280;16191;49.548;8.658;2023-03-15T13:56:36;100601.03;;;7.03;100.00
29121;BME280;16191;49.548;8.658;2023-03-15T13:59:14;100609.69;;;7.04;100.00
29121;BME280;16191;49.548;8.658;2023-03-15T14:01:41;100601.03;;;7.05;100.00
29121;BME280;16191;49.548;8.658;2023-03-15T14:04:13;100599.91;;;7.15;100.00
29121;BME280;16191;49.548;8.658;2023-03-15T14:06:41;100600.09;;;7.07;100.00
29121;BME280;16191;49.548;8.658;2023-03-15T14:09:24;100590.03;;;8.05;100.00
29121;BME280;16191;49.548;8.658;2023-03-15T14:12:05;100604.34;;;7.87;100.00